createdAt,value
2022-08-09T00:04:35.152Z,958.28
2022-08-09T00:19:38.104Z,958.12
2022-08-09T00:34:46.284Z,958.03
2022-08-09T00:49:56.610Z,958.06
2022-08-09T01:04:59.308Z,958.05
2022-08-09T01:20:03.293Z,957.98
2022-08-09T01:35:07.072Z,957.96
2022-08-09T01:50:20.470Z,957.98
2022-08-09T02:05:37.893Z,957.98
2022-08-09T02:20:46.413Z,958.01
2022-08-09T02:36:02.785Z,958.11
2022-08-09T02:51:06.247Z,958.29
2022-08-09T03:06:08.548Z,958.38
2022-08-09T03:21:10.897Z,958.5
2022-08-09T03:36:16.785Z,958.68
2022-08-09T03:51:57.222Z,959.04
2022-08-09T04:07:01.343Z,959.3
2022-08-09T04:22:04.893Z,959.5
2022-08-09T04:37:14.272Z,959.69
2022-08-09T04:52:26.190Z,959.82
2022-08-09T05:07:32.138Z,959.95
2022-08-09T05:23:50.989Z,960.18
2022-08-09T05:39:00.162Z,960.42
2022-08-09T05:54:02.619Z,960.54
2022-08-09T06:09:23.087Z,960.77
2022-08-09T06:24:56.495Z,961.03
2022-08-09T06:40:00.258Z,961.17
2022-08-09T06:55:10.280Z,961.23
2022-08-09T07:10:29.673Z,961.4
2022-08-09T07:25:42.676Z,961.47
2022-08-09T07:41:08.124Z,961.68
2022-08-09T07:56:26.765Z,961.73
2022-08-09T08:12:24.993Z,961.96
2022-08-09T08:27:40.562Z,962.14
2022-08-09T08:42:47.060Z,962.28
2022-08-09T08:57:57.213Z,962.42
2022-08-09T09:13:00.187Z,962.59
2022-08-09T09:28:11.796Z,962.73
2022-08-09T09:43:23.727Z,962.78
2022-08-09T09:58:26.539Z,962.97
2022-08-09T10:13:43.570Z,963.01
2022-08-09T10:28:49.030Z,963.36
2022-08-09T10:44:25.752Z,963.45
2022-08-09T10:59:31.362Z,963.48
2022-08-09T11:14:34.038Z,963.55
2022-08-09T11:30:04.640Z,963.56
2022-08-09T11:45:08.812Z,963.77
2022-08-09T12:00:16.289Z,963.87
2022-08-09T12:15:22.360Z,963.89
2022-08-09T12:30:52.921Z,963.94
2022-08-09T12:46:00.597Z,964.05
2022-08-09T13:01:02.968Z,964.27
2022-08-09T13:16:07.119Z,964.49
2022-08-09T13:32:13.376Z,964.51
2022-08-09T13:47:31.486Z,964.76
2022-08-09T14:03:03.092Z,965
2022-08-09T14:18:29.824Z,964.93
2022-08-09T14:33:38.089Z,964.87
2022-08-09T14:48:40.998Z,964.94
2022-08-09T15:03:47.852Z,964.86
2022-08-09T15:18:52.237Z,964.88
2022-08-09T15:34:18.401Z,964.71
2022-08-09T15:49:36.465Z,964.63
2022-08-09T16:04:39.501Z,964.61
2022-08-09T16:19:49.326Z,964.28
2022-08-09T16:35:06.715Z,964
2022-08-09T16:50:31.462Z,964
2022-08-09T17:06:07.818Z,963.9
2022-08-09T17:21:31.038Z,963.78
2022-08-09T17:36:33.281Z,963.55
2022-08-09T17:51:38.110Z,963.41
2022-08-09T18:06:49.960Z,963.26
2022-08-09T18:21:57.571Z,963.12
2022-08-09T18:37:03.675Z,962.96
2022-08-09T18:52:06.039Z,962.8
2022-08-09T19:07:12.484Z,962.72
2022-08-09T19:22:18.962Z,962.7
2022-08-09T19:37:23.198Z,962.78
2022-08-09T19:52:26.084Z,963.05
2022-08-09T20:07:33.774Z,963.1
2022-08-09T20:22:59.739Z,962.97
2022-08-09T20:38:23.423Z,962.77
2022-08-09T20:53:36.911Z,962.76
2022-08-09T21:08:40.665Z,962.74
2022-08-09T21:23:51.073Z,962.42
2022-08-09T21:38:57.259Z,962.13
2022-08-09T21:54:00.895Z,962.25
2022-08-09T22:09:03.188Z,962.19
2022-08-09T22:24:05.412Z,962.18
2022-08-09T22:39:08.108Z,962.18
2022-08-09T22:54:10.851Z,962.32
2022-08-09T23:09:13.313Z,962.2
2022-08-09T23:24:15.790Z,962.17
2022-08-09T23:39:18.070Z,962.28
2022-08-09T23:54:20.349Z,962.17
